Terminal Aerodrome Forecast
Issued by NWS Pueblo, CO

Home | Current Version | Previous Version | Text Only | Print | Product List | Glossary On
Versions: 1 2 3 4 5 6 7 8 9 10 11 12 13 14 15 16
000
FTUS45 KPUB 191720
TAFPUB
TAF
KPUB 191720Z 1918/2018 06015KT P6SM SCT100 BKN200
     FM192100 02010KT P6SM VCSH SCT060 BKN100
      TEMPO 1922/1924 4SM -TSRA BKN060CB
     FM200000 01015KT P6SM VCSH FEW060 BKN120
     FM200300 02006KT P6SM FEW040 BKN080
     FM200600 03006KT P6SM VCSH SCT030 BKN050
     FM201600 32007KT P6SM SCT050 BKN100=

USA.gov is the U.S. government's official web portal to all federal, state and local government web resources and services.